Les Masies de Roda





Hora UTC 23:10
Temperatura 6.6 ºC
Sòl 15 cm 4.3 ºC
Subsòl 10 cm 8.7 ºC
Humitat 97.5 %
Pressió 1025.7 hPa
Pluja 0.0 mm
Velocitat vent 0.0 km/h
Direcció vent NNE
Radiació solar 0.1 W/m²

Dades diàries 2020-10-29



Hora UTC (hivern +1h; estiu +2h)
Temperatura (ºC) Humitat (%) Pressió (hPa) Velocitat vent (km/h) Precipitació (mm) Radiació solar (W/m²)
Hora UTC Aire Sòl 15 cm Subsòl 10 cm Humitat Pressió Vel. Dir. Vel. Max Dir. Intent. màx 5 min. Rad. Sol.
00:05 6.6 4.8 8.2 97.0 1023.5 0.0 NNE 0.0 ESE 0.0 0.1
00:10 6.3 4.6 8.1 96.6 1023.5 0.0 NNE 0.0 ESE 0.0 0.1
00:15 6.4 4.4 8.0 97.5 1023.5 0.0 NNE 0.0 ESE 0.0 0.1
00:20 6.4 4.5 8.0 97.5 1023.5 0.0 NNE 0.0 ESE 0.0 0.1
00:25 6.4 4.4 8.0 97.4 1023.4 0.0 NNE 0.0 ESE 0.0 0.1
00:30 6.1 4.3 7.9 96.7 1023.4 0.0 NNE 0.0 SE 0.0 0.1
00:35 5.9 4.0 7.8 96.4 1023.5 0.0 NNE 0.0 SE 0.0 0.1
00:40 5.7 3.7 7.7 96.5 1023.6 0.0 NNE 0.0 NW 0.0 0.1
00:45 5.9 3.6 7.7 97.4 1023.7 0.4 NNW 3.4 NNW 0.0 0.1
00:50 6.2 3.7 7.7 98.0 1023.8 1.2 N 6.1 NNW 0.0 0.1
00:55 6.3 4.1 7.7 98.1 1023.7 0.0 NNE 0.0 N 0.0 0.1
01:00 6.3 4.2 7.8 98.1 1023.8 0.0 NNE 0.0 N 0.0 0.1
01:05 6.4 4.4 7.8 98.2 1023.7 0.0 NNE 0.0 N 0.0 0.1
01:10 6.1 4.4 7.7 97.6 1023.8 0.0 NNE 0.0 N 0.0 0.1
01:15 5.8 4.2 7.7 97.3 1023.8 0.0 NNE 0.0 N 0.0 0.1
01:20 5.8 4.3 7.7 97.6 1023.8 0.0 NNE 0.0 N 0.0 0.1
01:25 5.9 4.6 7.8 97.8 1023.8 0.0 NNE 0.0 N 0.0 0.1
01:30 6.2 4.9 8.0 98.3 1023.9 0.0 NNE 0.0 N 0.0 0.1
01:35 6.3 5.3 8.1 98.3 1023.9 0.0 NNE 0.0 N 0.0 0.1
01:40 6.3 5.5 8.2 98.4 1023.8 0.0 NNE 0.0 N 0.0 0.1
01:45 6.4 5.7 8.2 98.4 1023.7 0.0 NNE 0.0 N 0.0 0.1
01:50 6.6 5.8 8.3 98.5 1023.6 0.0 NNE 0.0 N 0.0 0.1
01:55 6.5 5.6 8.2 97.9 1023.5 0.1 WSW 3.4 WSW 0.0 0.1
02:00 6.2 5.3 8.1 97.5 1023.6 0.0 WSW 3.4 WSW 0.0 0.1
02:05 6.2 5.1 8.0 97.8 1023.7 0.0 NNE 0.0 WSW 0.0 0.1
02:10 6.3 5.1 8.0 98.1 1023.7 0.0 NNE 0.0 NW 0.0 0.1
02:15 6.5 5.2 8.0 98.3 1023.6 0.0 NNE 0.0 NW 0.0 0.1
02:20 6.5 5.5 8.1 98.4 1023.5 0.0 NNE 0.0 NW 0.0 0.1
02:25 6.6 5.5 8.1 98.4 1023.3 0.0 NNE 0.0 NW 0.0 0.1
02:30 6.7 5.4 8.0 98.3 1023.3 0.0 NNE 0.0 NW 0.0 0.1
02:35 6.6 5.3 7.9 97.9 1023.5 0.0 NNE 0.0 NW 0.0 0.1
02:40 6.6 5.2 7.9 98.1 1023.6 0.0 NNE 0.0 NNW 0.0 0.1
02:45 6.6 5.2 7.8 98.0 1023.6 0.0 NNE 0.0 N 0.0 0.1
02:50 6.5 5.0 7.7 97.7 1023.6 0.0 NNE 0.0 N 0.0 0.1
02:55 6.2 4.6 7.6 97.3 1023.7 0.0 NNE 0.0 N 0.0 0.1
03:00 6.1 4.5 7.5 97.5 1023.7 0.0 NNE 0.0 WNW 0.0 0.1
03:05 6.1 4.3 7.5 97.7 1023.6 0.0 NNE 0.0 SSW 0.0 0.1
03:10 6.3 4.5 7.5 98.1 1023.5 0.0 NNE 0.0 S 0.0 0.1
03:15 6.4 5.0 7.6 98.1 1023.6 0.0 NNE 0.0 S 0.0 0.1
03:20 6.3 5.2 7.8 98.0 1023.6 0.0 NNE 0.0 S 0.0 0.1
03:25 6.2 5.3 7.8 97.9 1023.7 0.0 NNE 0.0 S 0.0 0.1
03:30 6.2 5.3 7.8 98.0 1023.6 0.0 NNE 0.0 S 0.0 0.1
03:35 6.3 5.2 7.8 98.2 1023.6 0.0 NNE 0.0 S 0.0 0.1
03:40 6.4 5.4 7.9 98.3 1023.6 0.0 NNE 0.0 S 0.0 0.1
03:45 6.4 5.8 8.0 98.3 1023.8 0.0 NNE 0.0 NNE 0.0 0.1
03:50 6.5 6.1 8.1 98.4 1023.9 0.0 NNE 0.0 NNE 0.0 0.1
03:55 6.6 6.3 8.2 98.3 1024.0 0.0 NNE 0.0 N 0.0 0.1
04:00 6.7 6.4 8.3 98.4 1024.1 0.0 NNE 0.0 N 0.0 0.1
04:05 6.8 6.5 8.3 98.4 1024.2 0.0 NNE 0.0 N 0.0 0.1
04:10 6.9 6.7 8.4 98.4 1024.2 0.0 NNE 0.0 N 0.0 0.1
04:15 7.0 6.8 8.5 98.3 1024.2 0.0 NNE 0.0 N 0.0 0.1
04:20 7.1 6.9 8.5 98.3 1024.1 0.0 NNE 0.0 N 0.0 0.1
04:25 7.2 7.0 8.6 98.2 1024.1 0.0 NNE 0.0 N 0.0 0.1
04:30 7.2 7.1 8.7 98.1 1024.2 0.0 NNE 0.0 W 0.0 0.1
04:35 7.2 7.1 8.7 98.2 1024.3 0.0 NNE 0.0 NW 0.0 0.1
04:40 7.2 7.2 8.7 98.1 1024.3 0.0 NNE 0.0 NW 0.0 0.1
04:45 7.3 7.2 8.8 98.1 1024.3 0.0 NNE 0.0 W 0.0 0.1
04:50 7.3 7.3 8.8 98.1 1024.3 0.0 NNE 0.0 W 0.0 0.1
04:55 7.4 7.2 8.8 97.6 1024.4 0.0 NNE 0.0 W 0.0 0.1
05:00 7.4 7.2 8.8 97.4 1024.5 0.0 NNE 0.0 W 0.0 0.1
05:05 7.5 7.3 8.8 97.5 1024.6 0.0 NNE 0.0 W 0.0 0.1
05:10 7.5 7.3 8.9 97.7 1024.5 0.0 NNE 0.0 W 0.0 0.1
05:15 7.5 7.3 8.9 97.6 1024.5 0.0 NNE 0.0 W 0.0 0.1
05:20 7.5 7.4 8.9 97.5 1024.5 0.0 NNE 0.0 W 0.0 0.1
05:25 7.6 7.4 9.0 97.6 1024.5 0.0 NNE 0.0 W 0.0 0.1
05:30 7.6 7.4 9.0 97.6 1024.6 0.0 NNE 0.0 W 0.0 0.1
05:35 7.6 7.4 9.0 97.6 1024.6 0.0 NNE 0.0 W 0.0 0.1
05:40 7.6 7.4 9.0 97.3 1024.5 0.0 NNE 0.0 W 0.0 0.1
05:45 7.6 7.4 9.0 97.0 1024.5 0.0 NNE 0.0 W 0.0 0.1
05:50 7.7 7.4 9.0 96.4 1024.4 0.0 NNE 0.0 S 0.0 0.1
05:55 7.7 7.4 9.0 95.9 1024.4 0.0 NNE 0.0 S 0.0 0.1
06:00 7.9 7.5 9.0 95.7 1024.4 0.0 NNE 0.0 SSE 0.0 0.1
06:05 7.9 7.5 9.0 96.1 1024.4 0.0 NNE 0.0 SSE 0.0 0.1
06:10 7.9 7.5 9.1 96.3 1024.4 0.0 NNE 0.0 NNW 0.0 0.3
06:15 8.0 7.6 9.1 96.1 1024.4 0.0 NNE 0.0 NNW 0.0 0.3
06:20 8.0 7.6 9.1 96.1 1024.4 0.0 NNE 0.0 NNW 0.0 0.7
06:25 8.1 7.6 9.2 95.9 1024.6 0.0 NNE 0.0 NNW 0.0 1.3
06:30 8.1 7.6 9.2 95.6 1024.6 0.0 NNE 0.0 NE 0.0 2.5
06:35 8.2 7.5 9.1 95.8 1024.7 0.0 NNE 0.0 NNE 0.0 4.5
06:40 8.2 7.5 9.1 96.0 1024.7 0.0 NNE 0.0 NNW 0.0 9.1
06:45 8.2 7.4 9.1 96.0 1024.8 0.0 NNE 0.0 NW 0.0 17.2
06:50 8.2 7.4 9.1 95.8 1024.9 0.0 NNE 0.0 NW 0.0 17.6
06:55 8.2 7.6 9.2 96.1 1025.0 0.0 NNE 0.0 NW 0.0 13.1
07:00 8.3 7.8 9.3 95.5 1025.1 0.0 NNE 0.0 NW 0.0 14.9
07:05 8.4 7.9 9.3 95.3 1025.1 0.0 NNE 0.0 NW 0.0 21.0
07:10 8.4 8.0 9.4 95.3 1025.2 0.0 NNE 0.0 N 0.0 24.0
07:15 8.5 8.2 9.5 95.1 1025.2 0.0 NNE 0.0 N 0.0 29.1
07:20 8.6 8.3 9.6 94.9 1025.2 0.0 NNE 0.0 N 0.0 51.5
07:25 8.7 8.5 9.7 94.5 1025.3 0.0 NNE 0.0 N 0.0 62.9
07:30 8.8 8.7 9.9 93.7 1025.3 0.0 NNE 0.0 N 0.0 55.3
07:35 8.9 8.7 9.9 92.8 1025.2 0.0 NNE 0.0 N 0.0 70.7
07:40 9.1 8.9 10.0 92.6 1025.2 0.0 NNE 0.0 N 0.0 71.8
07:45 9.2 9.1 10.2 92.4 1025.4 0.0 NNE 0.0 SSW 0.0 68.6
07:50 9.3 9.3 10.3 92.7 1025.3 0.0 NNE 0.0 W 0.0 79.1
07:55 9.3 9.4 10.4 92.6 1025.3 0.0 NNE 0.0 W 0.0 101.3
08:00 9.5 9.7 10.7 92.4 1025.3 0.0 NNE 0.0 W 0.0 117.3
08:05 9.6 10.0 11.0 92.2 1025.3 0.0 NNE 0.0 WNW 0.0 125.2
08:10 9.8 10.3 11.3 91.7 1025.3 0.0 NNE 0.0 WNW 0.0 147.3
08:15 10.0 10.5 11.5 89.8 1025.3 0.0 NNE 0.0 WNW 0.0 148.0
08:20 10.2 10.7 11.7 89.6 1025.3 0.0 NNE 0.0 SW 0.0 154.6
08:25 10.3 10.8 11.9 88.7 1025.3 0.0 NNE 0.0 W 0.0 169.2
08:30 10.6 11.1 12.0 88.7 1025.4 0.0 NNE 0.0 W 0.0 223.8
08:35 10.8 11.5 12.3 87.8 1025.4 0.0 NNE 0.0 W 0.0 220.4
08:40 11.1 12.0 12.5 88.2 1025.4 0.0 NNE 0.0 WSW 0.0 242.0
08:45 11.3 12.6 12.7 85.6 1025.5 0.0 NNE 0.0 SW 0.0 212.9
08:50 11.5 13.0 12.9 85.9 1025.5 0.0 NNE 0.0 WSW 0.0 185.6
08:55 11.2 13.2 12.9 85.0 1025.7 0.0 NNE 0.0 NNE 0.0 173.6
09:00 11.3 12.9 12.9 86.1 1025.8 2.0 NE 6.1 N 0.0 193.8
09:05 11.3 13.5 13.0 85.6 1025.8 0.6 NE 6.1 NE 0.0 220.5
09:10 11.5 13.6 13.2 87.3 1025.9 1.2 NW 6.1 NNE 0.0 157.4
09:15 11.7 13.7 13.2 86.0 1026.0 0.0 NNE 0.0 NNE 0.0 193.9
09:20 11.9 14.0 13.3 85.3 1026.0 0.1 SE 3.4 SE 0.0 185.7
09:25 12.0 14.0 13.4 85.1 1026.0 0.0 NNE 0.0 SE 0.0 199.9
09:30 12.2 14.4 13.7 84.1 1025.9 0.2 SSW 3.4 SSW 0.0 192.5
09:35 12.5 14.5 13.9 83.9 1026.0 0.0 NNE 0.0 SW 0.0 203.6
09:40 12.7 14.9 14.1 83.6 1025.9 0.0 NNE 0.0 WNW 0.0 250.5
09:45 12.9 15.5 14.5 80.9 1025.9 0.0 S 3.4 S 0.0 283.5
09:50 13.3 16.1 15.2 79.6 1025.9 0.0 NNE 0.0 S 0.0 367.6
09:55 13.6 16.6 15.6 78.4 1025.8 0.6 SSW 3.4 SSW 0.0 279.1
10:00 13.9 17.5 16.1 78.8 1025.9 0.2 WNW 6.1 WNW 0.0 510.8
10:05 14.3 18.8 17.5 77.2 1025.8 0.4 W 3.4 WNW 0.0 372.3
10:10 14.3 18.8 17.4 76.9 1025.8 1.6 W 6.1 WNW 0.0 230.2
10:15 14.2 18.2 16.8 76.9 1025.8 0.8 WSW 6.1 WSW 0.0 224.9
10:20 14.4 17.8 16.4 75.7 1025.8 0.0 NNE 0.0 SW 0.0 253.7
10:25 14.7 18.0 16.4 76.0 1025.8 0.2 WSW 3.4 SW 0.0 297.6
10:30 15.0 18.5 16.7 76.8 1025.8 0.0 NNE 0.0 W 0.0 317.7
10:35 15.3 18.9 17.2 75.2 1025.7 0.5 W 6.1 W 0.0 385.1
10:40 15.6 20.0 18.0 75.4 1025.7 1.8 NW 6.1 NNW 0.0 559.9
10:45 16.1 21.5 19.7 74.4 1025.6 5.3 W 8.8 W 0.0 549.7
10:50 16.5 22.3 20.8 73.1 1025.6 4.6 NNW 8.8 NNW 0.0 515.0
10:55 16.4 22.6 21.3 72.4 1025.6 4.8 NNW 11.5 N 0.0 511.8
11:00 16.6 22.9 21.7 71.5 1025.5 3.9 NW 8.8 NW 0.0 504.8
11:05 16.8 23.3 22.1 69.1 1025.5 5.8 NW 11.5 WNW 0.0 478.4
11:10 17.1 23.1 22.2 69.9 1025.5 5.6 NNW 8.8 NNW 0.0 501.2
11:15 17.0 23.7 22.6 68.3 1025.4 4.1 N 8.8 N 0.0 512.4
11:20 17.1 23.9 23.1 68.8 1025.3 2.6 NNW 8.8 NNW 0.0 505.2
11:25 17.2 23.7 23.4 68.3 1025.2 1.8 N 8.8 NW 0.0 538.2
11:30 17.7 24.1 23.7 67.5 1025.1 5.7 NW 8.8 NW 0.0 505.2
11:35 17.5 24.0 23.7 66.4 1025.1 2.2 NNW 6.1 NNW 0.0 530.4
11:40 17.2 25.3 24.1 66.0 1025.0 1.7 ENE 6.1 ENE 0.0 535.0
11:45 17.0 26.0 24.3 66.9 1025.0 3.2 E 6.1 NE 0.0 546.4
11:50 17.8 25.4 24.2 66.1 1024.9 4.5 NW 14.2 WNW 0.0 517.6
11:55 17.8 25.2 24.3 64.3 1024.9 0.4 NW 6.1 NNW 0.0 514.4
12:00 18.1 25.3 24.0 63.2 1024.8 1.1 SE 6.1 SE 0.0 460.1
12:05 18.2 25.3 23.9 63.7 1024.8 1.1 E 6.1 ESE 0.0 513.3
12:10 18.7 25.6 24.6 64.1 1024.7 5.2 WNW 8.8 WNW 0.0 619.3
12:15 18.6 26.7 25.3 62.0 1024.7 1.6 N 6.1 NW 0.0 580.8
12:20 18.6 27.0 25.5 63.2 1024.7 5.3 NNW 11.5 NNW 0.0 582.5
12:25 18.6 25.6 25.4 63.3 1024.6 6.2 NNW 14.2 NNW 0.0 522.7
12:30 18.6 25.0 25.4 61.8 1024.5 6.0 NNW 14.2 NNW 0.0 439.3
12:35 18.4 24.4 25.0 62.5 1024.5 5.7 NW 16.9 W 0.0 474.9
12:40 18.6 24.4 25.1 61.2 1024.4 10.8 WNW 19.6 W 0.0 492.0
12:45 18.7 24.9 25.4 61.0 1024.4 9.7 WNW 16.9 WNW 0.0 496.4
12:50 18.6 24.8 25.4 61.6 1024.4 9.2 WNW 14.2 WNW 0.0 492.1
12:55 18.7 24.8 25.4 61.8 1024.5 10.0 WNW 16.9 NW 0.0 478.6
13:00 18.7 24.7 25.3 61.4 1024.4 9.2 NW 14.2 WNW 0.0 497.3
13:05 18.8 25.1 25.5 61.1 1024.4 10.7 WNW 16.9 WNW 0.0 498.0
13:10 18.8 25.3 25.7 60.4 1024.3 8.4 W 16.9 WNW 0.0 484.5
13:15 18.9 25.9 25.9 59.8 1024.3 9.2 W 14.2 W 0.0 481.0
13:20 18.9 26.1 26.1 60.3 1024.3 7.7 WNW 14.2 WNW 0.0 473.9
13:25 19.0 26.2 26.3 59.4 1024.3 7.0 WNW 14.2 W 0.0 444.8
13:30 18.8 25.5 26.0 59.9 1024.2 10.0 WNW 16.9 NW 0.0 398.4
13:35 18.8 25.1 25.7 60.2 1024.2 5.3 WNW 11.5 NNW 0.0 398.9
13:40 19.0 24.9 25.6 59.9 1024.2 7.2 W 14.2 W 0.0 416.0
13:45 19.1 25.0 25.7 58.8 1024.1 5.5 W 11.5 W 0.0 387.7
13:50 19.2 24.8 25.8 58.5 1024.1 6.7 W 16.9 WSW 0.0 388.6
13:55 19.0 24.2 25.4 59.0 1024.0 8.8 W 14.2 WSW 0.0 392.1
14:00 18.9 23.9 25.3 59.4 1024.1 7.5 NW 14.2 WNW 0.0 389.8
14:05 19.0 23.6 25.0 60.0 1024.1 7.9 WNW 14.2 W 0.0 381.6
14:10 19.1 23.4 24.9 58.9 1024.1 4.7 WNW 8.8 WNW 0.0 371.8
14:15 19.3 23.4 24.9 59.0 1024.1 6.3 WNW 16.9 WNW 0.0 366.9
14:20 19.4 23.6 24.9 58.5 1024.1 4.5 W 11.5 W 0.0 361.6
14:25 19.4 23.5 24.7 58.5 1024.1 5.5 SW 11.5 SW 0.0 326.3
14:30 19.3 22.8 24.2 60.0 1024.0 5.8 WNW 14.2 WNW 0.0 274.7
14:35 19.3 22.6 24.1 58.9 1024.0 8.1 W 14.2 NW 0.0 280.8
14:40 19.3 22.4 23.9 59.5 1024.0 4.4 W 8.8 W 0.0 281.5
14:45 19.4 22.3 23.8 58.5 1024.0 5.5 W 8.8 W 0.0 269.1
14:50 19.3 22.1 23.6 58.3 1024.0 3.4 W 6.1 WSW 0.0 251.4
14:55 19.1 21.7 23.3 58.1 1024.1 5.3 SW 8.8 SSW 0.0 241.8
15:00 19.2 21.5 22.8 58.9 1024.1 2.9 WSW 8.8 W 0.0 240.8
15:05 19.3 21.7 22.2 58.0 1024.1 0.1 SSW 3.4 SSW 0.0 233.1
15:10 19.4 21.8 22.3 58.0 1024.1 1.9 W 6.1 W 0.0 224.1
15:15 19.6 22.0 22.5 57.7 1024.1 3.1 WNW 8.8 WNW 0.0 218.5
15:20 19.4 21.4 22.3 59.0 1024.2 4.4 NW 8.8 NNW 0.0 208.5
15:25 19.5 21.4 22.3 58.2 1024.2 0.5 WNW 6.1 NW 0.0 192.1
15:30 19.6 21.3 22.2 58.1 1024.2 1.2 NW 6.1 NW 0.0 167.8
15:35 19.4 20.9 21.9 58.0 1024.2 2.2 WNW 6.1 NW 0.0 146.3
15:40 19.3 20.6 21.4 59.0 1024.2 2.4 WNW 6.1 W 0.0 140.5
15:45 19.3 20.3 20.8 58.9 1024.2 0.0 NNE 0.0 WNW 0.0 124.3
15:50 19.4 19.6 20.3 58.4 1024.1 0.0 NNE 0.0 WNW 0.0 118.9
15:55 19.3 18.9 20.0 58.7 1024.2 0.0 NNE 0.0 WNW 0.0 97.9
16:00 19.2 18.2 19.6 59.2 1024.2 0.0 NNE 0.0 WNW 0.0 87.7
16:05 19.0 17.6 19.1 59.3 1024.1 0.0 NNE 0.0 WNW 0.0 71.9
16:10 18.4 17.1 18.7 62.7 1024.1 0.0 NNE 0.0 WNW 0.0 56.9
16:15 18.1 16.5 18.3 65.2 1024.1 0.0 NNE 0.0 WNW 0.0 49.4
16:20 17.6 16.0 18.1 66.4 1024.1 0.0 NNE 0.0 WNW 0.0 52.9
16:25 17.4 15.6 17.8 68.4 1024.1 0.1 ENE 3.4 ENE 0.0 50.4
16:30 17.1 15.4 17.5 70.5 1024.1 0.0 NNE 0.0 NE 0.0 39.6
16:35 16.9 14.9 17.2 68.8 1024.2 1.3 E 6.1 ESE 0.0 19.1
16:40 16.7 14.4 16.9 69.7 1024.1 0.0 NNE 0.0 E 0.0 13.6
16:45 16.4 13.9 16.6 72.6 1024.1 0.0 NNE 0.0 E 0.0 9.6
16:50 15.9 13.5 16.3 74.5 1024.2 0.1 ENE 3.4 NE 0.0 6.1
16:55 15.6 13.2 16.0 75.5 1024.3 0.9 NE 6.1 NE 0.0 5.1
17:00 15.3 12.8 15.8 76.3 1024.3 0.3 ENE 3.4 NE 0.0 4.9
17:05 15.0 12.4 15.5 76.9 1024.3 0.0 NNE 0.0 NE 0.0 2.5
17:10 14.8 11.9 15.2 77.6 1024.3 0.0 NNE 0.0 E 0.0 0.6
17:15 14.5 11.6 15.1 79.1 1024.4 0.0 NNE 0.0 SE 0.0 0.2
17:20 14.3 11.3 14.9 80.0 1024.4 0.0 NNE 0.0 SE 0.0 0.1
17:25 14.2 11.1 14.7 80.3 1024.4 0.0 NNE 0.0 SE 0.0 0.1
17:30 14.1 10.8 14.5 80.8 1024.5 0.0 NNE 0.0 SE 0.0 0.1
17:35 13.9 10.6 14.4 82.9 1024.5 0.0 NNE 0.0 SE 0.0 0.1
17:40 13.6 10.5 14.2 83.2 1024.6 0.0 NNE 0.0 ESE 0.0 0.1
17:45 13.5 10.4 14.1 83.4 1024.6 0.0 NNE 0.0 NE 0.0 0.1
17:50 13.2 10.2 14.0 84.0 1024.7 0.0 NNE 0.0 NE 0.0 0.1
17:55 13.1 10.0 13.8 85.7 1024.7 0.0 NNE 0.0 NNW 0.0 0.1
18:00 12.8 9.8 13.7 84.0 1024.8 0.0 NNE 0.0 N 0.0 0.1
18:05 12.6 9.5 13.5 86.2 1024.8 0.0 NNE 0.0 N 0.0 0.1
18:10 12.4 9.4 13.4 87.3 1024.9 0.0 NNE 0.0 N 0.0 0.1
18:15 12.1 9.2 13.3 86.8 1024.9 0.0 NNE 0.0 N 0.0 0.1
18:20 11.9 9.0 13.1 88.6 1025.0 0.0 NNE 0.0 N 0.0 0.1
18:25 11.7 8.9 13.0 90.2 1025.0 0.0 NNE 0.0 N 0.0 0.1
18:30 11.5 8.9 13.0 90.7 1025.0 0.0 NNE 0.0 N 0.0 0.1
18:35 11.4 8.9 12.9 91.4 1025.0 0.0 NNE 0.0 N 0.0 0.1
18:40 11.4 8.9 12.8 92.0 1025.0 0.0 NNE 0.0 N 0.0 0.1
18:45 11.3 8.8 12.7 92.3 1025.0 0.0 NNE 0.0 N 0.0 0.1
18:50 11.1 8.6 12.5 92.0 1025.0 0.0 NNE 0.0 N 0.0 0.1
18:55 11.0 8.5 12.5 92.3 1025.0 0.0 NNE 0.0 N 0.0 0.1
19:00 10.8 8.4 12.4 91.5 1025.0 0.0 NNE 0.0 E 0.0 0.1
19:05 10.7 8.3 12.3 91.3 1025.0 0.0 NNE 0.0 E 0.0 0.1
19:10 10.5 8.1 12.2 90.9 1025.0 0.0 NNE 0.0 E 0.0 0.1
19:15 10.3 7.8 12.0 91.8 1025.1 0.0 NNE 0.0 E 0.0 0.1
19:20 10.1 7.8 11.9 93.4 1025.1 0.0 NNE 0.0 E 0.0 0.1
19:25 10.0 7.8 11.9 94.4 1025.1 0.0 NNE 0.0 E 0.0 0.1
19:30 10.2 7.9 11.8 94.1 1025.0 0.0 NNE 0.0 E 0.0 0.1
19:35 10.2 8.0 11.7 94.3 1025.0 0.0 NNE 0.0 NE 0.0 0.1
19:40 10.0 7.8 11.7 92.3 1025.0 0.0 NNE 0.0 ENE 0.0 0.1
19:45 9.8 7.5 11.5 91.7 1025.0 0.0 NNE 0.0 ENE 0.0 0.1
19:50 9.6 7.2 11.4 92.5 1025.1 0.0 NNE 0.0 ENE 0.0 0.1
19:55 9.6 7.1 11.3 93.3 1025.1 0.0 NNE 0.0 ENE 0.0 0.1
20:00 9.4 6.9 11.2 92.8 1025.1 0.0 NNE 0.0 ENE 0.0 0.1
20:05 9.2 6.7 11.0 93.3 1025.1 0.0 NNE 0.0 ENE 0.0 0.1
20:10 9.2 6.7 11.0 94.3 1025.1 0.0 NNE 0.0 ENE 0.0 0.1
20:15 9.1 6.7 11.0 93.9 1025.1 0.0 NNE 0.0 ENE 0.0 0.1
20:20 9.1 6.5 10.9 95.4 1025.1 0.0 NNE 0.0 ENE 0.0 0.1
20:25 9.2 6.5 10.8 96.4 1025.2 0.0 NNE 0.0 ENE 0.0 0.1
20:30 9.0 6.7 10.8 95.7 1025.2 0.0 NNE 0.0 ENE 0.0 0.1
20:35 8.7 6.5 10.7 94.8 1025.3 0.0 NNE 0.0 ENE 0.0 0.1
20:40 8.6 6.3 10.6 94.7 1025.3 0.0 NNE 0.0 ENE 0.0 0.1
20:45 8.7 6.2 10.5 96.1 1025.4 0.0 NNE 0.0 ENE 0.0 0.1
20:50 8.4 6.3 10.5 95.0 1025.4 0.0 NNE 0.0 ENE 0.0 0.1
20:55 8.4 6.2 10.4 95.6 1025.5 0.0 NNE 0.0 ENE 0.0 0.1
21:00 8.4 6.0 10.3 96.3 1025.5 0.0 NNE 0.0 ENE 0.0 0.1
21:05 8.3 6.1 10.2 96.2 1025.5 0.0 NNE 0.0 ENE 0.0 0.1
21:10 8.2 6.0 10.2 95.7 1025.5 0.0 NNE 0.0 ENE 0.0 0.1
21:15 8.2 5.9 10.1 96.2 1025.5 0.0 NNE 0.0 ENE 0.0 0.1
21:20 8.2 5.9 10.0 96.8 1025.5 0.0 NNE 0.0 ENE 0.0 0.1
21:25 7.9 5.8 10.0 96.0 1025.6 0.0 NNE 0.0 ENE 0.0 0.1
21:30 7.7 5.5 9.8 95.6 1025.6 0.0 NNE 0.0 ENE 0.0 0.1
21:35 7.7 5.3 9.7 96.3 1025.6 0.0 NNE 0.0 ENE 0.0 0.1
21:40 7.8 5.4 9.7 97.1 1025.6 0.0 NNE 0.0 ENE 0.0 0.1
21:45 7.6 5.5 9.7 96.2 1025.6 0.0 NNE 0.0 ENE 0.0 0.1
21:50 7.5 5.3 9.6 96.2 1025.6 0.0 NNE 0.0 ENE 0.0 0.1
21:55 7.4 5.1 9.5 96.3 1025.6 0.0 NNE 0.0 ENE 0.0 0.1
22:00 7.4 5.1 9.5 96.5 1025.7 0.0 NNE 0.0 ENE 0.0 0.1
22:05 7.5 5.1 9.5 97.4 1025.7 0.0 NNE 0.0 ENE 0.0 0.1
22:10 7.2 5.0 9.4 96.4 1025.7 0.0 NNE 0.0 ENE 0.0 0.1
22:15 7.1 4.8 9.3 96.7 1025.7 0.0 NNE 0.0 ENE 0.0 0.1
22:20 7.1 4.6 9.2 96.6 1025.7 0.0 NNE 0.0 ENE 0.0 0.1
22:25 7.0 4.6 9.1 96.4 1025.7 0.0 NNE 0.0 ENE 0.0 0.1
22:30 7.0 4.6 9.0 97.0 1025.8 0.0 NNE 0.0 ENE 0.0 0.1
22:35 7.0 4.8 9.0 97.3 1025.7 0.0 NNE 0.0 ENE 0.0 0.1
22:40 6.9 4.7 9.0 97.0 1025.7 0.0 NNE 0.0 ENE 0.0 0.1
22:45 6.7 4.7 9.0 96.6 1025.7 0.0 NNE 0.0 ENE 0.0 0.1
22:50 6.6 4.6 8.9 96.6 1025.7 0.0 NNE 0.0 ENE 0.0 0.1
22:55 6.5 4.6 8.9 96.7 1025.8 0.0 NNE 0.0 ENE 0.0 0.1
23:00 6.5 4.4 8.8 96.9 1025.8 0.0 NNE 0.0 ENE 0.0 0.1
23:05 6.6 4.4 8.8 97.3 1025.7 0.0 NNE 0.0 ENE 0.0 0.1
23:10 6.6 4.3 8.7 97.5 1025.7 0.0 NNE 0.0 ENE 0.0 0.1
Màxima 19.7 27.0 26.3 98.5 1026.0 10.8 WNW 19.6 W 0.0 619.3
Mínima 5.7 3.6 7.5 57.7 1023.3
Total 0.0